Bookmark and Share
Track history (hours):
 

Drifting buoy 62726

Last reported at 2014-Apr-23 07:00 UTC. Time now 2014-Apr-23 09:25 UTC.
Position N 37°27' W 013°45'.

Water temperature 16.5 ° C

NotesDate/timePositionNaut miles runAvg speedWind from/ knotsBaromVisibWave heightAir tempDewpointWater temp
2014-Apr-23 07:00N 37°27' W 013°45'0 0.2 16.5
2014-Apr-23 06:00N 37°27' W 013°45'1 0.6 16.5
2014-Apr-23 05:00N 37°27' W 013°45'1 0.5 16.6
2014-Apr-23 04:00N 37°27' W 013°45'0 0.0 16.5
2014-Apr-23 03:00N 37°27' W 013°45'0 0.4 16.6
2014-Apr-23 02:00N 37°27' W 013°45'0 0.4 16.6
2014-Apr-23 01:00N 37°27' W 013°45'0 0.0 16.6
2014-Apr-22 23:00N 37°27' W 013°45'1 1.3 16.6
2014-Apr-22 22:00N 37°27' W 013°47'0 0.1 16.6
2014-Apr-22 18:00N 37°28' W 013°47'1 0.7 16.7
2014-Apr-22 16:00N 37°29' W 013°47'1 0.7 16.7
2014-Apr-22 14:00N 37°29' W 013°49'0 0.0 16.7
2014-Apr-22 13:00N 37°29' W 013°49'2 0.9 16.7
2014-Apr-22 11:00N 37°30' W 013°51'2 0.9 16.6
2014-Apr-22 09:00N 37°29' W 013°53'0 0.1 16.6
2014-Apr-22 06:00N 37°29' W 013°53'0 0.2 16.6
2014-Apr-22 05:00N 37°29' W 013°53'1 0.7 16.6
2014-Apr-22 04:00N 37°29' W 013°54'0 0.3 16.6
2014-Apr-22 03:00N 37°29' W 013°54'0 0.0 16.6
2014-Apr-22 01:00N 37°29' W 013°54'1 0.4 16.7
2014-Apr-21 22:00N 37°29' W 013°56'1 0.5 16.7
2014-Apr-21 21:00N 37°28' W 013°56'0 0.0 16.8
2014-Apr-21 20:00N 37°28' W 013°56'0 0.2 16.8
2014-Apr-21 19:00N 37°28' W 013°56'1 1.1 16.8
2014-Apr-21 18:00N 37°29' W 013°55'1 1.1 16.8
2014-Apr-21 17:00N 37°29' W 013°56'0 0.4 16.9
2014-Apr-21 16:00N 37°29' W 013°57'0 0.2 16.9
2014-Apr-21 15:00N 37°29' W 013°57'1 0.9 16.9
2014-Apr-21 14:00N 37°30' W 013°57'0 0.1 16.9
2014-Apr-21 13:00N 37°30' W 013°57'1 0.7 16.8
2014-Apr-21 11:00N 37°31' W 013°58'4 0.9 16.7
2014-Apr-21 07:00N 37°30' W 014°02'0 0.0 16.5
2014-Apr-21 05:00N 37°30' W 014°02'0 0.2 16.5
2014-Apr-21 03:00N 37°29' W 014°03'2 0.8 16.5
2014-Apr-21 01:00N 37°31' W 014°03'0 0.1 16.6
2014-Apr-20 23:00N 37°31' W 014°03'1 0.6 16.5
2014-Apr-20 22:00N 37°31' W 014°04'1 1.3 16.5
2014-Apr-20 21:00N 37°31' W 014°05'0 0.0 16.6
2014-Apr-20 20:00N 37°31' W 014°05'0 0.0 16.6
2014-Apr-20 19:00N 37°31' W 014°05'0 0.0 16.6
2014-Apr-20 18:00N 37°31' W 014°05'2 0.3 16.8
2014-Apr-20 12:00N 37°31' W 014°07'1 1.3 16.9
2014-Apr-20 11:00N 37°32' W 014°09'0 0.0 16.9
2014-Apr-20 10:00N 37°32' W 014°09'1 1.1 16.7
2014-Apr-20 09:00N 37°31' W 014°10'0 0.0 16.6
2014-Apr-20 08:00N 37°31' W 014°10'0 0.5 16.5
2014-Apr-20 07:00N 37°31' W 014°10'0 0.2 16.5
2014-Apr-20 05:00N 37°31' W 014°10'0 0.0 16.5
2014-Apr-20 04:00N 37°31' W 014°10'1 0.7 16.6
2014-Apr-20 03:00N 37°32' W 014°11'0 0.0 16.6
2014-Apr-20 02:00N 37°32' W 014°11'0 0.0 16.7
2014-Apr-20 01:00N 37°32' W 014°11'2 0.5 16.7
2014-Apr-19 22:00N 37°32' W 014°13'0 0.5 16.7
2014-Apr-19 21:00N 37°32' W 014°13'2 1.6 16.7
2014-Apr-19 20:00N 37°31' W 014°15'0 0.0 16.8
2014-Apr-19 19:00N 37°31' W 014°15'0 0.0 16.8
2014-Apr-19 18:00N 37°31' W 014°15'0 0.0 16.8
2014-Apr-19 17:00N 37°31' W 014°15'1 0.3 16.9
2014-Apr-19 12:00N 37°30' W 014°16'1 0.9 16.9
2014-Apr-19 11:00N 37°31' W 014°17'0 0.1 17.0
2014-Apr-19 10:00N 37°31' W 014°17'0 0.0 17.0
2014-Apr-19 09:00N 37°31' W 014°17'0 0.2 17.0
2014-Apr-19 08:00N 37°31' W 014°17'0 0.4 16.9
2014-Apr-19 07:00N 37°31' W 014°18'0 0.0 16.9
2014-Apr-19 06:00N 37°31' W 014°18'1 0.7 16.6
2014-Apr-19 05:00N 37°31' W 014°19'0 0.0 16.6
2014-Apr-19 04:00N 37°31' W 014°19'1 1.0 16.7
2014-Apr-19 03:00N 37°30' W 014°20'1 0.3 16.8
2014-Apr-18 23:00N 37°30' W 014°20'1 0.5 17.4
2014-Apr-18 22:00N 37°29' W 014°21'0 0.2 17.6
2014-Apr-18 21:00N 37°29' W 014°21'1 0.8 17.4
2014-Apr-18 20:00N 37°29' W 014°20'1 0.3 17.6
2014-Apr-18 17:00N 37°29' W 014°21'1 1.1 18.3
2014-Apr-18 16:00N 37°29' W 014°22'0 0.1 18.7
2014-Apr-18 15:00N 37°29' W 014°22'1 1.1 18.7
2014-Apr-18 14:00N 37°29' W 014°24'0 0.1 18.0
2014-Apr-18 11:00N 37°29' W 014°24'0 0.3 17.4
2014-Apr-18 10:00N 37°29' W 014°24'0 0.4 17.0
2014-Apr-18 09:00N 37°28' W 014°24'0 0.4 16.7
2014-Apr-18 08:00N 37°29' W 014°25'0 0.4 16.5
2014-Apr-18 07:00N 37°28' W 014°24'1 0.4 16.5
2014-Apr-18 05:00N 37°28' W 014°25'0 0.3 16.5
2014-Apr-18 04:00N 37°28' W 014°26'0 0.2 16.5
2014-Apr-18 03:00N 37°28' W 014°26'1 0.1 16.6
2014-Apr-17 23:00N 37°28' W 014°27'1 0.6 16.6
2014-Apr-17 22:00N 37°27' W 014°27'0 0.1 16.6
2014-Apr-17 21:00N 37°27' W 014°27'0 0.3 16.7
2014-Apr-17 20:00N 37°28' W 014°28'0 0.2 16.8
2014-Apr-17 19:00N 37°28' W 014°28'0 0.0 16.8
2014-Apr-17 17:00N 37°28' W 014°28'1 0.7 16.9
2014-Apr-17 16:00N 37°27' W 014°28'2 0.9 16.9
2014-Apr-17 14:00N 37°27' W 014°30'0 0.0 16.8
2014-Apr-17 13:00N 37°27' W 014°30'0 0.4 16.7
2014-Apr-17 12:00N 37°27' W 014°30'0 0.4 16.6
2014-Apr-17 11:00N 37°27' W 014°31'0 0.0 16.5
2014-Apr-17 10:00N 37°27' W 014°31'0 0.2 16.5
2014-Apr-17 09:00N 37°27' W 014°30'0 0.0 16.4
2014-Apr-17 07:00N 37°27' W 014°30'0 0.5 16.3
2014-Apr-17 06:00N 37°26' W 014°30'0 0.3 16.4
2014-Apr-17 05:00N 37°26' W 014°31'1 0.9 16.4
2014-Apr-17 04:00N 37°26' W 014°32'0 0.0 16.3
2014-Apr-17 03:00N 37°26' W 014°32'1 0.4 16.5
2014-Apr-17 00:00N 37°25' W 014°32'0 0.1 16.8
2014-Apr-16 23:00N 37°25' W 014°32'1 0.6 16.7
2014-Apr-16 22:00N 37°25' W 014°33'0 0.4 16.9
2014-Apr-16 21:00N 37°25' W 014°33'0 0.1 17.2
2014-Apr-16 18:00N 37°26' W 014°32'1 0.6 17.9
2014-Apr-16 17:00N 37°25' W 014°33'1 0.6 18.3
2014-Apr-16 16:00N 37°25' W 014°34'1 0.3 18.7
2014-Apr-16 14:00N 37°25' W 014°33'1 0.5 18.0
2014-Apr-16 12:00N 37°25' W 014°34'0 0.3 17.1
2014-Apr-16 11:00N 37°25' W 014°34'0 0.2 16.8
2014-Apr-16 10:00N 37°25' W 014°34'0 0.1 16.5
2014-Apr-16 07:00N 37°25' W 014°35'1 0.6 16.1
2014-Apr-16 06:00N 37°24' W 014°35'0 0.0 16.1
2014-Apr-16 04:00N 37°24' W 014°35'1 1.4 16.1
2014-Apr-16 03:00N 37°23' W 014°36'0 0.0 16.1
2014-Apr-16 00:00N 37°23' W 014°36'0 0.3 16.1
2014-Apr-15 23:00N 37°23' W 014°37'0 0.0 16.1
2014-Apr-15 22:00N 37°23' W 014°37'0 0.1 16.2
2014-Apr-15 21:00N 37°23' W 014°37'0 0.0 16.2
2014-Apr-15 20:00N 37°23' W 014°37'0 0.1 16.2
2014-Apr-15 17:00N 37°23' W 014°37'0 0.1 16.3
2014-Apr-15 16:00N 37°23' W 014°37'0 0.4 16.2
2014-Apr-15 15:00N 37°23' W 014°37'0 0.0 16.2
2014-Apr-15 14:00N 37°23' W 014°37'1 0.5 16.3
2014-Apr-15 12:00N 37°23' W 014°38'2 1.8 16.1
2014-Apr-15 11:00N 37°23' W 014°40'1 1.3 16.0
2014-Apr-15 10:00N 37°22' W 014°40'0 0.0 15.9
2014-Apr-15 09:00N 37°22' W 014°40'0 0.0 15.8
2014-Apr-15 08:00N 37°22' W 014°40'0 0.1 15.8
2014-Apr-15 07:00N 37°22' W 014°40'1 0.5 15.8
2014-Apr-15 06:00N 37°21' W 014°40'0 0.0 15.9
2014-Apr-15 05:00N 37°21' W 014°40'1 0.9 15.8
2014-Apr-15 04:00N 37°21' W 014°41'0 0.0 15.9
2014-Apr-15 03:00N 37°21' W 014°41'0 0.0 15.9
2014-Apr-15 01:00N 37°21' W 014°41'1 0.1 15.9
2014-Apr-14 19:00N 37°21' W 014°42'0 0.0 16.1
2014-Apr-14 18:00N 37°21' W 014°42'1 1.1 16.2
2014-Apr-14 17:00N 37°21' W 014°44'0 0.0 16.2
2014-Apr-14 16:00N 37°21' W 014°44'1 0.2 16.2
2014-Apr-14 12:00N 37°21' W 014°45'0 0.4 15.9
2014-Apr-14 11:00N 37°21' W 014°45'1 0.2 15.7
2014-Apr-14 07:00N 37°20' W 014°45'0 0.2 15.6
2014-Apr-14 06:00N 37°19' W 014°45'0 0.2 15.6
2014-Apr-14 04:00N 37°20' W 014°44'0 0.0 15.6
2014-Apr-14 03:00N 37°20' W 014°44'2 1.6 15.6
2014-Apr-14 02:00N 37°20' W 014°46'0 0.0 15.6
2014-Apr-14 01:00N 37°20' W 014°46'0 0.0 15.6
2014-Apr-13 23:00N 37°20' W 014°47'0 0.4 15.6
2014-Apr-13 22:00N 37°20' W 014°47'1 0.4 15.6
2014-Apr-13 20:00N 37°19' W 014°47'1 0.1 15.6
2014-Apr-13 14:00N 37°18' W 014°47'0 0.0 15.7
2014-Apr-13 13:00N 37°18' W 014°47'0 0.0 15.6
2014-Apr-13 12:00N 37°18' W 014°47'0 0.4 15.6
2014-Apr-13 11:00N 37°18' W 014°47'1 0.8 15.6
2014-Apr-13 10:00N 37°18' W 014°48'1 0.9 15.6
2014-Apr-13 09:00N 37°18' W 014°49'0 0.0 15.6
2014-Apr-13 07:00N 37°18' W 014°49'   15.6

Dump ship's entire track history

sailing weather and tide predictions

Buoy 62726